sensor_id;sensor_type;location;lat;lon;timestamp;P1;durP1;ratioP1;P2;durP2;ratioP2
28068;SDS011;15382;47.578;8.086;2023-04-26T00:25:55;3.45;;;2.13;;
28068;SDS011;15382;47.578;8.086;2023-04-26T00:35:56;8.43;;;2.58;;
28068;SDS011;15382;47.578;8.086;2023-04-26T00:55:57;6.00;;;3.35;;
28068;SDS011;15382;47.578;8.086;2023-04-26T01:05:59;5.93;;;2.90;;
28068;SDS011;15382;47.578;8.086;2023-04-26T01:26:01;5.65;;;2.65;;
28068;SDS011;15382;47.578;8.086;2023-04-26T01:46:06;2.17;;;1.50;;
28068;SDS011;15382;47.578;8.086;2023-04-26T01:56:07;2.85;;;1.75;;
28068;SDS011;15382;47.578;8.086;2023-04-26T02:06:08;4.15;;;1.80;;
28068;SDS011;15382;47.578;8.086;2023-04-26T02:16:09;3.13;;;2.10;;
28068;SDS011;15382;47.578;8.086;2023-04-26T02:26:09;2.60;;;1.75;;
28068;SDS011;15382;47.578;8.086;2023-04-26T02:36:11;3.80;;;2.40;;
28068;SDS011;15382;47.578;8.086;2023-04-26T02:46:12;3.40;;;1.98;;
28068;SDS011;15382;47.578;8.086;2023-04-26T03:06:15;2.88;;;1.90;;
28068;SDS011;15382;47.578;8.086;2023-04-26T03:16:18;3.03;;;1.88;;
28068;SDS011;15382;47.578;8.086;2023-04-26T03:26:22;6.53;;;1.80;;
28068;SDS011;15382;47.578;8.086;2023-04-26T03:36:24;2.85;;;1.77;;
28068;SDS011;15382;47.578;8.086;2023-04-26T03:46:28;4.22;;;2.38;;
28068;SDS011;15382;47.578;8.086;2023-04-26T03:56:29;7.75;;;2.30;;
28068;SDS011;15382;47.578;8.086;2023-04-26T04:06:30;5.35;;;2.45;;
28068;SDS011;15382;47.578;8.086;2023-04-26T04:16:32;12.05;;;2.25;;
28068;SDS011;15382;47.578;8.086;2023-04-26T04:26:32;4.93;;;2.33;;
28068;SDS011;15382;47.578;8.086;2023-04-26T04:36:33;4.25;;;2.35;;
28068;SDS011;15382;47.578;8.086;2023-04-26T04:46:35;5.00;;;2.92;;
28068;SDS011;15382;47.578;8.086;2023-04-26T04:56:37;4.43;;;2.67;;
28068;SDS011;15382;47.578;8.086;2023-04-26T05:06:39;5.97;;;2.90;;
28068;SDS011;15382;47.578;8.086;2023-04-26T05:16:40;10.27;;;5.22;;
28068;SDS011;15382;47.578;8.086;2023-04-26T05:26:41;10.55;;;5.63;;
28068;SDS011;15382;47.578;8.086;2023-04-26T05:37:01;10.30;;;5.20;;
28068;SDS011;15382;47.578;8.086;2023-04-26T05:47:02;18.35;;;6.90;;
28068;SDS011;15382;47.578;8.086;2023-04-26T05:57:04;13.10;;;5.78;;
28068;SDS011;15382;47.578;8.086;2023-04-26T06:07:05;14.27;;;6.18;;
28068;SDS011;15382;47.578;8.086;2023-04-26T06:17:07;11.23;;;5.72;;
28068;SDS011;15382;47.578;8.086;2023-04-26T06:27:08;10.82;;;5.47;;
28068;SDS011;15382;47.578;8.086;2023-04-26T06:37:11;11.63;;;5.53;;
28068;SDS011;15382;47.578;8.086;2023-04-26T06:47:15;11.20;;;5.65;;
28068;SDS011;15382;47.578;8.086;2023-04-26T06:57:16;12.80;;;6.15;;
28068;SDS011;15382;47.578;8.086;2023-04-26T07:17:17;11.90;;;5.90;;
28068;SDS011;15382;47.578;8.086;2023-04-26T07:27:18;10.75;;;6.07;;
28068;SDS011;15382;47.578;8.086;2023-04-26T07:37:19;11.45;;;6.03;;
28068;SDS011;15382;47.578;8.086;2023-04-26T07:47:20;11.60;;;6.17;;
28068;SDS011;15382;47.578;8.086;2023-04-26T07:57:21;11.77;;;5.77;;
28068;SDS011;15382;47.578;8.086;2023-04-26T08:07:21;11.97;;;6.17;;
28068;SDS011;15382;47.578;8.086;2023-04-26T08:17:22;10.80;;;6.32;;
28068;SDS011;15382;47.578;8.086;2023-04-26T08:27:23;12.67;;;6.57;;
28068;SDS011;15382;47.578;8.086;2023-04-26T08:37:25;11.70;;;5.80;;
28068;SDS011;15382;47.578;8.086;2023-04-26T08:47:34;8.43;;;5.03;;
28068;SDS011;15382;47.578;8.086;2023-04-26T08:57:42;11.27;;;4.13;;
28068;SDS011;15382;47.578;8.086;2023-04-26T09:07:46;10.68;;;4.57;;
28068;SDS011;15382;47.578;8.086;2023-04-26T09:27:48;8.63;;;4.00;;
28068;SDS011;15382;47.578;8.086;2023-04-26T09:47:52;7.72;;;4.30;;
28068;SDS011;15382;47.578;8.086;2023-04-26T09:57:53;11.63;;;4.60;;
28068;SDS011;15382;47.578;8.086;2023-04-26T10:07:54;7.68;;;3.63;;
28068;SDS011;15382;47.578;8.086;2023-04-26T10:27:56;7.60;;;4.03;;
28068;SDS011;15382;47.578;8.086;2023-04-26T10:58:24;5.63;;;2.17;;
28068;SDS011;15382;47.578;8.086;2023-04-26T11:08:30;3.72;;;1.67;;
28068;SDS011;15382;47.578;8.086;2023-04-26T11:18:31;8.80;;;1.83;;
28068;SDS011;15382;47.578;8.086;2023-04-26T11:28:33;3.95;;;1.50;;
28068;SDS011;15382;47.578;8.086;2023-04-26T11:38:36;3.65;;;1.73;;
28068;SDS011;15382;47.578;8.086;2023-04-26T11:48:37;3.95;;;2.05;;
28068;SDS011;15382;47.578;8.086;2023-04-26T11:58:38;5.50;;;1.92;;
28068;SDS011;15382;47.578;8.086;2023-04-26T12:08:39;4.87;;;1.73;;
28068;SDS011;15382;47.578;8.086;2023-04-26T12:18:40;5.22;;;1.85;;
28068;SDS011;15382;47.578;8.086;2023-04-26T12:28:41;7.03;;;2.23;;
28068;SDS011;15382;47.578;8.086;2023-04-26T12:38:42;5.10;;;1.80;;
28068;SDS011;15382;47.578;8.086;2023-04-26T12:48:43;3.40;;;1.70;;
28068;SDS011;15382;47.578;8.086;2023-04-26T12:58:44;8.13;;;1.83;;
28068;SDS011;15382;47.578;8.086;2023-04-26T13:08:45;3.90;;;1.97;;
28068;SDS011;15382;47.578;8.086;2023-04-26T13:18:45;3.00;;;2.00;;
28068;SDS011;15382;47.578;8.086;2023-04-26T13:28:46;8.87;;;5.00;;
28068;SDS011;15382;47.578;8.086;2023-04-26T13:38:47;4.17;;;2.00;;
28068;SDS011;15382;47.578;8.086;2023-04-26T13:48:48;5.77;;;2.00;;
28068;SDS011;15382;47.578;8.086;2023-04-26T13:58:49;3.13;;;1.83;;
28068;SDS011;15382;47.578;8.086;2023-04-26T14:08:53;3.75;;;2.20;;
28068;SDS011;15382;47.578;8.086;2023-04-26T14:18:54;5.93;;;2.20;;
28068;SDS011;15382;47.578;8.086;2023-04-26T14:28:55;3.50;;;2.17;;
28068;SDS011;15382;47.578;8.086;2023-04-26T14:38:55;4.53;;;1.90;;
28068;SDS011;15382;47.578;8.086;2023-04-26T14:48:56;2.07;;;1.60;;
28068;SDS011;15382;47.578;8.086;2023-04-26T14:58:57;7.20;;;1.97;;
28068;SDS011;15382;47.578;8.086;2023-04-26T15:08:58;5.30;;;1.73;;
28068;SDS011;15382;47.578;8.086;2023-04-26T15:18:59;5.93;;;1.77;;
28068;SDS011;15382;47.578;8.086;2023-04-26T15:39:01;5.23;;;1.73;;
28068;SDS011;15382;47.578;8.086;2023-04-26T15:49:02;6.17;;;2.63;;
28068;SDS011;15382;47.578;8.086;2023-04-26T15:59:03;6.47;;;1.97;;
28068;SDS011;15382;47.578;8.086;2023-04-26T16:09:04;5.80;;;2.43;;
28068;SDS011;15382;47.578;8.086;2023-04-26T16:19:07;6.93;;;1.92;;
28068;SDS011;15382;47.578;8.086;2023-04-26T16:29:08;5.60;;;2.30;;
28068;SDS011;15382;47.578;8.086;2023-04-26T16:39:09;3.03;;;1.80;;
28068;SDS011;15382;47.578;8.086;2023-04-26T16:49:11;2.83;;;1.90;;
28068;SDS011;15382;47.578;8.086;2023-04-26T16:59:15;3.75;;;1.85;;
28068;SDS011;15382;47.578;8.086;2023-04-26T17:09:16;4.93;;;3.60;;
28068;SDS011;15382;47.578;8.086;2023-04-26T17:29:18;6.10;;;2.30;;
28068;SDS011;15382;47.578;8.086;2023-04-26T17:39:19;7.67;;;1.90;;
28068;SDS011;15382;47.578;8.086;2023-04-26T17:49:19;3.73;;;1.87;;
28068;SDS011;15382;47.578;8.086;2023-04-26T17:59:24;4.43;;;2.40;;
28068;SDS011;15382;47.578;8.086;2023-04-26T18:09:25;10.10;;;3.37;;
28068;SDS011;15382;47.578;8.086;2023-04-26T18:19:26;9.37;;;3.60;;
28068;SDS011;15382;47.578;8.086;2023-04-26T18:29:26;2.97;;;1.93;;
28068;SDS011;15382;47.578;8.086;2023-04-26T18:39:28;6.15;;;2.53;;
28068;SDS011;15382;47.578;8.086;2023-04-26T18:49:29;4.30;;;2.13;;
28068;SDS011;15382;47.578;8.086;2023-04-26T18:59:30;3.40;;;2.20;;
28068;SDS011;15382;47.578;8.086;2023-04-26T19:09:31;9.23;;;2.37;;
28068;SDS011;15382;47.578;8.086;2023-04-26T19:19:32;8.25;;;2.40;;
28068;SDS011;15382;47.578;8.086;2023-04-26T19:29:33;3.53;;;2.53;;
28068;SDS011;15382;47.578;8.086;2023-04-26T19:39:34;5.03;;;2.60;;
28068;SDS011;15382;47.578;8.086;2023-04-26T19:49:34;3.90;;;2.10;;
28068;SDS011;15382;47.578;8.086;2023-04-26T19:59:35;7.33;;;2.47;;
28068;SDS011;15382;47.578;8.086;2023-04-26T20:09:36;5.43;;;2.40;;
28068;SDS011;15382;47.578;8.086;2023-04-26T20:19:37;4.53;;;2.80;;
28068;SDS011;15382;47.578;8.086;2023-04-26T20:29:38;3.93;;;2.10;;
28068;SDS011;15382;47.578;8.086;2023-04-26T20:39:39;5.53;;;2.60;;
28068;SDS011;15382;47.578;8.086;2023-04-26T20:49:39;4.03;;;2.13;;
28068;SDS011;15382;47.578;8.086;2023-04-26T20:59:40;3.97;;;2.40;;
28068;SDS011;15382;47.578;8.086;2023-04-26T21:09:41;6.83;;;2.53;;
28068;SDS011;15382;47.578;8.086;2023-04-26T21:19:42;9.00;;;3.50;;
28068;SDS011;15382;47.578;8.086;2023-04-26T21:29:43;5.15;;;2.80;;
28068;SDS011;15382;47.578;8.086;2023-04-26T21:39:44;10.30;;;3.20;;
28068;SDS011;15382;47.578;8.086;2023-04-26T21:49:45;4.43;;;2.80;;
28068;SDS011;15382;47.578;8.086;2023-04-26T21:59:45;3.80;;;2.63;;
28068;SDS011;15382;47.578;8.086;2023-04-26T22:09:46;5.60;;;2.93;;
28068;SDS011;15382;47.578;8.086;2023-04-26T22:19:47;7.67;;;2.70;;
28068;SDS011;15382;47.578;8.086;2023-04-26T22:29:48;5.90;;;2.72;;
28068;SDS011;15382;47.578;8.086;2023-04-26T22:39:49;9.73;;;3.10;;
28068;SDS011;15382;47.578;8.086;2023-04-26T22:49:51;8.18;;;3.00;;
28068;SDS011;15382;47.578;8.086;2023-04-26T22:59:52;8.17;;;3.17;;
28068;SDS011;15382;47.578;8.086;2023-04-26T23:09:53;6.67;;;3.17;;
28068;SDS011;15382;47.578;8.086;2023-04-26T23:19:54;5.37;;;3.17;;
28068;SDS011;15382;47.578;8.086;2023-04-26T23:39:59;5.10;;;2.65;;
28068;SDS011;15382;47.578;8.086;2023-04-26T23:50:00;7.77;;;3.07;;
